sensor_id;sensor_type;location;lat;lon;timestamp;temperature;humidity
16980;DHT22;42288;52.182;21.156;2022-11-09T00:02:17;7.90;99.90
16980;DHT22;42288;52.182;21.156;2022-11-09T00:04:42;7.90;99.90
16980;DHT22;42288;52.182;21.156;2022-11-09T00:07:08;8.00;99.90
16980;DHT22;42288;52.182;21.156;2022-11-09T00:09:33;8.00;99.90
16980;DHT22;42288;52.182;21.156;2022-11-09T00:11:59;8.00;99.90
16980;DHT22;42288;52.182;21.156;2022-11-09T00:14:29;8.00;99.90
16980;DHT22;42288;52.182;21.156;2022-11-09T00:16:54;7.90;99.90
16980;DHT22;42288;52.182;21.156;2022-11-09T00:19:21;8.00;99.90
16980;DHT22;42288;52.182;21.156;2022-11-09T00:21:47;8.00;99.90
16980;DHT22;42288;52.182;21.156;2022-11-09T00:24:12;7.90;99.90
16980;DHT22;42288;52.182;21.156;2022-11-09T00:26:37;8.10;99.90
16980;DHT22;42288;52.182;21.156;2022-11-09T00:29:03;7.90;99.90
16980;DHT22;42288;52.182;21.156;2022-11-09T00:31:28;8.00;99.90
16980;DHT22;42288;52.182;21.156;2022-11-09T00:33:55;8.00;99.90
16980;DHT22;42288;52.182;21.156;2022-11-09T00:36:23;7.90;99.90
16980;DHT22;42288;52.182;21.156;2022-11-09T00:38:54;7.80;99.90
16980;DHT22;42288;52.182;21.156;2022-11-09T00:41:20;7.80;99.90
16980;DHT22;42288;52.182;21.156;2022-11-09T00:43:46;7.80;99.90
16980;DHT22;42288;52.182;21.156;2022-11-09T00:46:12;7.80;99.90
16980;DHT22;42288;52.182;21.156;2022-11-09T00:48:38;7.80;99.90
16980;DHT22;42288;52.182;21.156;2022-11-09T00:51:03;7.70;99.90
16980;DHT22;42288;52.182;21.156;2022-11-09T00:53:30;7.60;99.90
16980;DHT22;42288;52.182;21.156;2022-11-09T00:56:04;7.60;99.90
16980;DHT22;42288;52.182;21.156;2022-11-09T00:58:32;7.60;99.90
16980;DHT22;42288;52.182;21.156;2022-11-09T01:00:59;7.50;99.90
16980;DHT22;42288;52.182;21.156;2022-11-09T01:03:25;7.60;99.90
16980;DHT22;42288;52.182;21.156;2022-11-09T01:05:51;7.60;99.90
16980;DHT22;42288;52.182;21.156;2022-11-09T01:08:18;7.70;99.90
16980;DHT22;42288;52.182;21.156;2022-11-09T01:10:46;7.70;99.90
16980;DHT22;42288;52.182;21.156;2022-11-09T01:13:13;7.70;99.90
16980;DHT22;42288;52.182;21.156;2022-11-09T01:15:50;7.90;99.90
16980;DHT22;42288;52.182;21.156;2022-11-09T01:18:18;7.80;99.90
16980;DHT22;42288;52.182;21.156;2022-11-09T01:20:46;7.90;99.90
16980;DHT22;42288;52.182;21.156;2022-11-09T01:23:13;7.80;99.90
16980;DHT22;42288;52.182;21.156;2022-11-09T01:25:39;7.80;99.90
16980;DHT22;42288;52.182;21.156;2022-11-09T01:28:05;7.80;99.90
16980;DHT22;42288;52.182;21.156;2022-11-09T01:30:36;7.90;99.90
16980;DHT22;42288;52.182;21.156;2022-11-09T01:33:06;7.90;99.90
16980;DHT22;42288;52.182;21.156;2022-11-09T01:35:33;7.90;99.90
16980;DHT22;42288;52.182;21.156;2022-11-09T01:37:58;7.70;99.90
16980;DHT22;42288;52.182;21.156;2022-11-09T01:40:26;7.80;99.90
16980;DHT22;42288;52.182;21.156;2022-11-09T01:42:52;7.90;99.90
16980;DHT22;42288;52.182;21.156;2022-11-09T01:47:49;7.70;99.90
16980;DHT22;42288;52.182;21.156;2022-11-09T01:50:19;7.50;99.90
16980;DHT22;42288;52.182;21.156;2022-11-09T01:52:47;7.70;99.90
16980;DHT22;42288;52.182;21.156;2022-11-09T01:55:17;7.60;99.90
16980;DHT22;42288;52.182;21.156;2022-11-09T01:58:05;7.60;99.90
16980;DHT22;42288;52.182;21.156;2022-11-09T02:00:33;7.70;99.90
16980;DHT22;42288;52.182;21.156;2022-11-09T02:03:23;7.80;99.90
16980;DHT22;42288;52.182;21.156;2022-11-09T02:05:50;7.50;99.90
16980;DHT22;42288;52.182;21.156;2022-11-09T02:08:19;7.70;99.90
16980;DHT22;42288;52.182;21.156;2022-11-09T02:11:02;7.70;99.90
16980;DHT22;42288;52.182;21.156;2022-11-09T02:13:29;7.70;99.90
16980;DHT22;42288;52.182;21.156;2022-11-09T02:15:56;7.60;99.90
16980;DHT22;42288;52.182;21.156;2022-11-09T02:18:21;7.70;99.90
16980;DHT22;42288;52.182;21.156;2022-11-09T02:20:52;7.80;99.90
16980;DHT22;42288;52.182;21.156;2022-11-09T02:23:18;7.90;99.90
16980;DHT22;42288;52.182;21.156;2022-11-09T02:25:53;8.10;99.90
16980;DHT22;42288;52.182;21.156;2022-11-09T02:28:20;8.00;99.90
16980;DHT22;42288;52.182;21.156;2022-11-09T02:30:49;8.00;99.90
16980;DHT22;42288;52.182;21.156;2022-11-09T02:33:16;8.00;99.90
16980;DHT22;42288;52.182;21.156;2022-11-09T02:35:41;8.10;99.90
16980;DHT22;42288;52.182;21.156;2022-11-09T02:38:11;8.00;99.90
16980;DHT22;42288;52.182;21.156;2022-11-09T02:40:40;8.00;99.90
16980;DHT22;42288;52.182;21.156;2022-11-09T02:43:08;7.90;99.90
16980;DHT22;42288;52.182;21.156;2022-11-09T02:45:35;7.90;99.90
16980;DHT22;42288;52.182;21.156;2022-11-09T02:48:00;7.80;99.90
16980;DHT22;42288;52.182;21.156;2022-11-09T02:50:26;8.00;99.90
16980;DHT22;42288;52.182;21.156;2022-11-09T02:52:51;8.00;99.90
16980;DHT22;42288;52.182;21.156;2022-11-09T02:55:17;8.00;99.90
16980;DHT22;42288;52.182;21.156;2022-11-09T02:57:43;7.80;99.90
16980;DHT22;42288;52.182;21.156;2022-11-09T03:00:08;7.80;99.90
16980;DHT22;42288;52.182;21.156;2022-11-09T03:02:34;7.90;99.90
16980;DHT22;42288;52.182;21.156;2022-11-09T03:05:00;7.90;99.90
16980;DHT22;42288;52.182;21.156;2022-11-09T03:07:26;7.90;99.90
16980;DHT22;42288;52.182;21.156;2022-11-09T03:09:51;8.00;99.90
16980;DHT22;42288;52.182;21.156;2022-11-09T03:12:18;7.90;99.90
16980;DHT22;42288;52.182;21.156;2022-11-09T03:15:00;7.80;99.90
16980;DHT22;42288;52.182;21.156;2022-11-09T03:17:27;7.90;99.90
16980;DHT22;42288;52.182;21.156;2022-11-09T03:19:53;8.00;99.90
16980;DHT22;42288;52.182;21.156;2022-11-09T03:22:20;7.90;99.90
16980;DHT22;42288;52.182;21.156;2022-11-09T03:24:45;7.80;99.90
16980;DHT22;42288;52.182;21.156;2022-11-09T03:27:11;7.70;99.90
16980;DHT22;42288;52.182;21.156;2022-11-09T03:29:37;7.80;99.90
16980;DHT22;42288;52.182;21.156;2022-11-09T03:32:03;7.70;99.90
16980;DHT22;42288;52.182;21.156;2022-11-09T03:34:28;7.90;99.90
16980;DHT22;42288;52.182;21.156;2022-11-09T03:36:54;7.80;99.90
16980;DHT22;42288;52.182;21.156;2022-11-09T03:39:19;7.90;99.90
16980;DHT22;42288;52.182;21.156;2022-11-09T03:41:45;7.70;99.90
16980;DHT22;42288;52.182;21.156;2022-11-09T03:44:10;7.90;99.90
16980;DHT22;42288;52.182;21.156;2022-11-09T03:46:36;7.90;99.90
16980;DHT22;42288;52.182;21.156;2022-11-09T03:49:01;7.80;99.90
16980;DHT22;42288;52.182;21.156;2022-11-09T03:51:27;7.90;99.90
16980;DHT22;42288;52.182;21.156;2022-11-09T03:53:52;7.90;99.90
16980;DHT22;42288;52.182;21.156;2022-11-09T03:56:18;7.80;99.90
16980;DHT22;42288;52.182;21.156;2022-11-09T03:58:43;7.80;99.90
16980;DHT22;42288;52.182;21.156;2022-11-09T04:01:09;7.90;99.90
16980;DHT22;42288;52.182;21.156;2022-11-09T04:03:35;8.00;99.90
16980;DHT22;42288;52.182;21.156;2022-11-09T04:06:01;7.90;99.90
16980;DHT22;42288;52.182;21.156;2022-11-09T04:08:26;7.70;99.90
16980;DHT22;42288;52.182;21.156;2022-11-09T04:10:52;7.90;99.90
16980;DHT22;42288;52.182;21.156;2022-11-09T04:13:17;7.80;99.90
16980;DHT22;42288;52.182;21.156;2022-11-09T04:15:43;7.80;99.90
16980;DHT22;42288;52.182;21.156;2022-11-09T04:18:11;7.80;99.90
16980;DHT22;42288;52.182;21.156;2022-11-09T04:20:37;7.70;99.90
16980;DHT22;42288;52.182;21.156;2022-11-09T04:23:04;7.90;99.90
16980;DHT22;42288;52.182;21.156;2022-11-09T04:25:35;7.70;99.90
16980;DHT22;42288;52.182;21.156;2022-11-09T04:28:02;7.80;99.90
16980;DHT22;42288;52.182;21.156;2022-11-09T04:30:29;7.80;99.90
16980;DHT22;42288;52.182;21.156;2022-11-09T04:32:56;7.70;99.90
16980;DHT22;42288;52.182;21.156;2022-11-09T04:35:22;7.70;99.90
16980;DHT22;42288;52.182;21.156;2022-11-09T04:38:02;7.80;99.90
16980;DHT22;42288;52.182;21.156;2022-11-09T04:40:30;7.90;99.90
16980;DHT22;42288;52.182;21.156;2022-11-09T04:42:58;7.90;99.90
16980;DHT22;42288;52.182;21.156;2022-11-09T04:45:24;7.70;99.90
16980;DHT22;42288;52.182;21.156;2022-11-09T04:47:50;7.80;99.90
16980;DHT22;42288;52.182;21.156;2022-11-09T04:50:15;7.70;99.90
16980;DHT22;42288;52.182;21.156;2022-11-09T04:52:41;7.50;99.90
16980;DHT22;42288;52.182;21.156;2022-11-09T04:55:07;7.70;99.90
16980;DHT22;42288;52.182;21.156;2022-11-09T04:57:33;7.60;99.90
16980;DHT22;42288;52.182;21.156;2022-11-09T04:59:58;7.60;99.90
16980;DHT22;42288;52.182;21.156;2022-11-09T05:02:24;7.50;99.90
16980;DHT22;42288;52.182;21.156;2022-11-09T05:04:49;7.40;99.90
16980;DHT22;42288;52.182;21.156;2022-11-09T05:07:14;7.40;99.90
16980;DHT22;42288;52.182;21.156;2022-11-09T05:09:40;7.40;99.90
16980;DHT22;42288;52.182;21.156;2022-11-09T05:12:06;7.40;99.90
16980;DHT22;42288;52.182;21.156;2022-11-09T05:14:31;7.50;99.90
16980;DHT22;42288;52.182;21.156;2022-11-09T05:16:57;7.40;99.90
16980;DHT22;42288;52.182;21.156;2022-11-09T05:19:22;7.40;99.90
16980;DHT22;42288;52.182;21.156;2022-11-09T05:21:48;7.20;99.90
16980;DHT22;42288;52.182;21.156;2022-11-09T05:24:13;7.10;99.90
16980;DHT22;42288;52.182;21.156;2022-11-09T05:26:40;7.20;99.90
16980;DHT22;42288;52.182;21.156;2022-11-09T05:29:08;7.20;99.90
16980;DHT22;42288;52.182;21.156;2022-11-09T05:31:34;7.30;99.90
16980;DHT22;42288;52.182;21.156;2022-11-09T05:34:00;7.30;99.90
16980;DHT22;42288;52.182;21.156;2022-11-09T05:36:27;7.30;99.90
16980;DHT22;42288;52.182;21.156;2022-11-09T05:38:53;7.30;99.90
16980;DHT22;42288;52.182;21.156;2022-11-09T05:41:19;7.40;99.90
16980;DHT22;42288;52.182;21.156;2022-11-09T05:43:45;7.30;99.90
16980;DHT22;42288;52.182;21.156;2022-11-09T05:46:12;7.20;99.90
16980;DHT22;42288;52.182;21.156;2022-11-09T05:48:38;7.30;99.90
16980;DHT22;42288;52.182;21.156;2022-11-09T05:51:05;7.30;99.90
16980;DHT22;42288;52.182;21.156;2022-11-09T05:53:32;7.40;99.90
16980;DHT22;42288;52.182;21.156;2022-11-09T05:56:02;7.30;99.90
16980;DHT22;42288;52.182;21.156;2022-11-09T05:58:27;7.40;99.90
16980;DHT22;42288;52.182;21.156;2022-11-09T06:00:53;7.40;99.90
16980;DHT22;42288;52.182;21.156;2022-11-09T06:03:18;7.50;99.90
16980;DHT22;42288;52.182;21.156;2022-11-09T06:05:44;7.50;99.90
16980;DHT22;42288;52.182;21.156;2022-11-09T06:08:11;7.50;99.90
16980;DHT22;42288;52.182;21.156;2022-11-09T06:10:38;7.40;99.90
16980;DHT22;42288;52.182;21.156;2022-11-09T06:13:04;7.40;99.90
16980;DHT22;42288;52.182;21.156;2022-11-09T06:15:29;7.40;99.90
16980;DHT22;42288;52.182;21.156;2022-11-09T06:17:56;7.30;99.90
16980;DHT22;42288;52.182;21.156;2022-11-09T06:20:22;7.50;99.90
16980;DHT22;42288;52.182;21.156;2022-11-09T06:22:53;7.60;99.90
16980;DHT22;42288;52.182;21.156;2022-11-09T06:25:19;7.60;99.90
16980;DHT22;42288;52.182;21.156;2022-11-09T06:27:44;7.40;99.90
16980;DHT22;42288;52.182;21.156;2022-11-09T06:30:10;7.40;99.90
16980;DHT22;42288;52.182;21.156;2022-11-09T06:32:35;7.50;99.90
16980;DHT22;42288;52.182;21.156;2022-11-09T06:35:01;7.60;99.90
16980;DHT22;42288;52.182;21.156;2022-11-09T06:37:26;7.60;99.90
16980;DHT22;42288;52.182;21.156;2022-11-09T06:39:52;7.70;99.90
16980;DHT22;42288;52.182;21.156;2022-11-09T06:42:17;7.70;99.90
16980;DHT22;42288;52.182;21.156;2022-11-09T06:44:43;7.70;99.90
16980;DHT22;42288;52.182;21.156;2022-11-09T06:47:08;7.80;99.90
16980;DHT22;42288;52.182;21.156;2022-11-09T06:49:34;7.90;99.90
16980;DHT22;42288;52.182;21.156;2022-11-09T06:51:59;7.90;99.90
16980;DHT22;42288;52.182;21.156;2022-11-09T06:54:25;8.00;99.90
16980;DHT22;42288;52.182;21.156;2022-11-09T06:56:53;8.00;99.90
16980;DHT22;42288;52.182;21.156;2022-11-09T06:59:19;8.10;99.90
16980;DHT22;42288;52.182;21.156;2022-11-09T07:01:44;8.10;99.90
16980;DHT22;42288;52.182;21.156;2022-11-09T07:04:12;8.20;99.90
16980;DHT22;42288;52.182;21.156;2022-11-09T07:06:41;8.20;99.90
16980;DHT22;42288;52.182;21.156;2022-11-09T07:09:08;8.00;99.90
16980;DHT22;42288;52.182;21.156;2022-11-09T07:11:34;8.00;99.90
16980;DHT22;42288;52.182;21.156;2022-11-09T07:13:59;8.10;99.90
16980;DHT22;42288;52.182;21.156;2022-11-09T07:16:27;8.30;99.90
16980;DHT22;42288;52.182;21.156;2022-11-09T07:18:52;8.40;99.90
16980;DHT22;42288;52.182;21.156;2022-11-09T07:21:18;8.30;99.90
16980;DHT22;42288;52.182;21.156;2022-11-09T07:23:46;8.20;99.90
16980;DHT22;42288;52.182;21.156;2022-11-09T07:26:12;8.40;99.90
16980;DHT22;42288;52.182;21.156;2022-11-09T07:28:37;8.60;99.90
16980;DHT22;42288;52.182;21.156;2022-11-09T07:31:03;8.70;99.90
16980;DHT22;42288;52.182;21.156;2022-11-09T07:33:29;8.80;99.90
16980;DHT22;42288;52.182;21.156;2022-11-09T07:35:58;8.70;99.90
16980;DHT22;42288;52.182;21.156;2022-11-09T07:38:24;8.70;99.90
16980;DHT22;42288;52.182;21.156;2022-11-09T07:40:49;8.90;99.90
16980;DHT22;42288;52.182;21.156;2022-11-09T07:43:15;9.20;99.90
16980;DHT22;42288;52.182;21.156;2022-11-09T07:45:41;9.20;99.90
16980;DHT22;42288;52.182;21.156;2022-11-09T07:48:10;9.40;99.90
16980;DHT22;42288;52.182;21.156;2022-11-09T07:50:37;9.20;99.90
16980;DHT22;42288;52.182;21.156;2022-11-09T07:53:04;9.30;99.90
16980;DHT22;42288;52.182;21.156;2022-11-09T07:55:31;9.30;99.90
16980;DHT22;42288;52.182;21.156;2022-11-09T07:58:03;9.60;99.90
16980;DHT22;42288;52.182;21.156;2022-11-09T08:00:30;9.60;99.90
16980;DHT22;42288;52.182;21.156;2022-11-09T08:02:57;9.50;99.90
16980;DHT22;42288;52.182;21.156;2022-11-09T08:05:23;9.70;99.90
16980;DHT22;42288;52.182;21.156;2022-11-09T08:07:54;9.50;99.90
16980;DHT22;42288;52.182;21.156;2022-11-09T08:10:20;9.70;99.90
16980;DHT22;42288;52.182;21.156;2022-11-09T08:12:52;9.70;99.90
16980;DHT22;42288;52.182;21.156;2022-11-09T08:15:18;9.80;99.90
16980;DHT22;42288;52.182;21.156;2022-11-09T08:17:43;9.80;99.90
16980;DHT22;42288;52.182;21.156;2022-11-09T08:20:09;9.80;99.90
16980;DHT22;42288;52.182;21.156;2022-11-09T08:22:43;9.90;99.90
16980;DHT22;42288;52.182;21.156;2022-11-09T08:25:10;9.70;99.90
16980;DHT22;42288;52.182;21.156;2022-11-09T08:27:36;9.90;99.90
16980;DHT22;42288;52.182;21.156;2022-11-09T08:30:06;9.80;99.90
16980;DHT22;42288;52.182;21.156;2022-11-09T08:32:32;10.00;99.90
16980;DHT22;42288;52.182;21.156;2022-11-09T08:34:58;10.20;99.90
16980;DHT22;42288;52.182;21.156;2022-11-09T08:37:23;10.30;99.90
16980;DHT22;42288;52.182;21.156;2022-11-09T08:39:49;10.40;99.90
16980;DHT22;42288;52.182;21.156;2022-11-09T08:42:14;10.60;99.90
16980;DHT22;42288;52.182;21.156;2022-11-09T08:44:40;10.80;99.90
16980;DHT22;42288;52.182;21.156;2022-11-09T08:47:05;11.10;99.90
16980;DHT22;42288;52.182;21.156;2022-11-09T08:49:31;11.00;99.90
16980;DHT22;42288;52.182;21.156;2022-11-09T08:51:56;11.00;99.90
16980;DHT22;42288;52.182;21.156;2022-11-09T08:54:22;11.30;99.90
16980;DHT22;42288;52.182;21.156;2022-11-09T08:56:47;11.30;99.90
16980;DHT22;42288;52.182;21.156;2022-11-09T08:59:13;11.50;99.90
16980;DHT22;42288;52.182;21.156;2022-11-09T09:01:38;11.80;99.90
16980;DHT22;42288;52.182;21.156;2022-11-09T09:04:04;11.90;99.90
16980;DHT22;42288;52.182;21.156;2022-11-09T09:06:29;11.80;99.90
16980;DHT22;42288;52.182;21.156;2022-11-09T09:08:55;12.10;99.90
16980;DHT22;42288;52.182;21.156;2022-11-09T09:11:20;11.90;99.90
16980;DHT22;42288;52.182;21.156;2022-11-09T09:13:46;12.10;99.90
16980;DHT22;42288;52.182;21.156;2022-11-09T09:16:13;12.10;99.90
16980;DHT22;42288;52.182;21.156;2022-11-09T09:18:38;12.20;99.90
16980;DHT22;42288;52.182;21.156;2022-11-09T09:21:06;12.30;99.90
16980;DHT22;42288;52.182;21.156;2022-11-09T09:23:32;12.10;99.90
16980;DHT22;42288;52.182;21.156;2022-11-09T09:25:57;12.60;99.90
16980;DHT22;42288;52.182;21.156;2022-11-09T09:28:22;12.60;99.90
16980;DHT22;42288;52.182;21.156;2022-11-09T09:30:48;13.10;99.90
16980;DHT22;42288;52.182;21.156;2022-11-09T09:33:13;13.40;99.90
16980;DHT22;42288;52.182;21.156;2022-11-09T09:35:39;13.60;99.90
16980;DHT22;42288;52.182;21.156;2022-11-09T09:38:04;13.90;99.90
16980;DHT22;42288;52.182;21.156;2022-11-09T09:40:42;14.30;99.10
16980;DHT22;42288;52.182;21.156;2022-11-09T09:43:18;14.50;98.60
16980;DHT22;42288;52.182;21.156;2022-11-09T09:45:50;14.40;98.10
16980;DHT22;42288;52.182;21.156;2022-11-09T09:48:30;14.60;98.00
16980;DHT22;42288;52.182;21.156;2022-11-09T09:51:06;14.40;97.80
16980;DHT22;42288;52.182;21.156;2022-11-09T09:53:48;14.00;98.00
16980;DHT22;42288;52.182;21.156;2022-11-09T09:56:24;14.40;98.40
16980;DHT22;42288;52.182;21.156;2022-11-09T09:58:57;14.70;97.70
16980;DHT22;42288;52.182;21.156;2022-11-09T10:01:27;14.80;97.10
16980;DHT22;42288;52.182;21.156;2022-11-09T10:03:53;14.60;96.90
16980;DHT22;42288;52.182;21.156;2022-11-09T10:06:44;14.60;97.20
16980;DHT22;42288;52.182;21.156;2022-11-09T10:12:11;14.50;97.40
16980;DHT22;42288;52.182;21.156;2022-11-09T10:17:29;14.30;96.90
16980;DHT22;42288;52.182;21.156;2022-11-09T10:20:30;14.30;97.70
16980;DHT22;42288;52.182;21.156;2022-11-09T10:23:24;14.40;97.50
16980;DHT22;42288;52.182;21.156;2022-11-09T10:26:02;14.70;96.60
16980;DHT22;42288;52.182;21.156;2022-11-09T10:28:29;14.70;96.20
16980;DHT22;42288;52.182;21.156;2022-11-09T10:30:56;14.40;96.40
16980;DHT22;42288;52.182;21.156;2022-11-09T10:33:23;14.60;96.80
16980;DHT22;42288;52.182;21.156;2022-11-09T10:36:15;14.40;96.50
16980;DHT22;42288;52.182;21.156;2022-11-09T10:38:48;14.60;97.00
16980;DHT22;42288;52.182;21.156;2022-11-09T10:41:33;14.60;96.60
16980;DHT22;42288;52.182;21.156;2022-11-09T10:44:00;14.70;96.80
16980;DHT22;42288;52.182;21.156;2022-11-09T10:46:25;14.80;96.90
16980;DHT22;42288;52.182;21.156;2022-11-09T10:48:52;15.00;97.00
16980;DHT22;42288;52.182;21.156;2022-11-09T10:51:31;14.70;96.40
16980;DHT22;42288;52.182;21.156;2022-11-09T10:54:20;14.50;96.60
16980;DHT22;42288;52.182;21.156;2022-11-09T10:56:57;14.70;96.30
16980;DHT22;42288;52.182;21.156;2022-11-09T11:01:57;14.90;96.00
16980;DHT22;42288;52.182;21.156;2022-11-09T11:04:24;15.00;95.70
16980;DHT22;42288;52.182;21.156;2022-11-09T11:06:50;14.80;95.30
16980;DHT22;42288;52.182;21.156;2022-11-09T11:09:19;15.00;95.90
16980;DHT22;42288;52.182;21.156;2022-11-09T11:11:45;15.00;95.50
16980;DHT22;42288;52.182;21.156;2022-11-09T11:14:30;14.80;94.80
16980;DHT22;42288;52.182;21.156;2022-11-09T11:16:57;14.90;94.90
16980;DHT22;42288;52.182;21.156;2022-11-09T11:19:33;14.80;95.30
16980;DHT22;42288;52.182;21.156;2022-11-09T11:25:04;14.70;95.70
16980;DHT22;42288;52.182;21.156;2022-11-09T11:27:45;14.70;95.80
16980;DHT22;42288;52.182;21.156;2022-11-09T11:30:22;14.80;95.50
16980;DHT22;42288;52.182;21.156;2022-11-09T11:32:53;14.90;95.40
16980;DHT22;42288;52.182;21.156;2022-11-09T11:35:30;14.40;95.70
16980;DHT22;42288;52.182;21.156;2022-11-09T11:55:00;14.30;96.50
16980;DHT22;42288;52.182;21.156;2022-11-09T12:00:09;14.40;95.80
16980;DHT22;42288;52.182;21.156;2022-11-09T12:03:09;14.70;96.20
16980;DHT22;42288;52.182;21.156;2022-11-09T12:06:10;14.80;95.40
16980;DHT22;42288;52.182;21.156;2022-11-09T12:08:57;14.90;95.60
16980;DHT22;42288;52.182;21.156;2022-11-09T12:11:35;15.30;95.10
16980;DHT22;42288;52.182;21.156;2022-11-09T12:14:38;15.20;94.90
16980;DHT22;42288;52.182;21.156;2022-11-09T12:22:19;16.80;92.40
16980;DHT22;42288;52.182;21.156;2022-11-09T12:24:58;17.30;92.10
16980;DHT22;42288;52.182;21.156;2022-11-09T12:30:20;17.10;91.90
16980;DHT22;42288;52.182;21.156;2022-11-09T12:32:59;16.90;91.20
16980;DHT22;42288;52.182;21.156;2022-11-09T12:35:34;16.70;91.10
16980;DHT22;42288;52.182;21.156;2022-11-09T12:38:23;16.90;91.40
16980;DHT22;42288;52.182;21.156;2022-11-09T12:40:59;16.90;90.70
16980;DHT22;42288;52.182;21.156;2022-11-09T12:46:04;16.30;91.70
16980;DHT22;42288;52.182;21.156;2022-11-09T12:48:33;15.90;92.10
16980;DHT22;42288;52.182;21.156;2022-11-09T12:51:00;15.40;92.70
16980;DHT22;42288;52.182;21.156;2022-11-09T12:53:37;15.20;93.30
16980;DHT22;42288;52.182;21.156;2022-11-09T12:58:38;14.90;94.10
16980;DHT22;42288;52.182;21.156;2022-11-09T13:01:06;14.80;94.30
16980;DHT22;42288;52.182;21.156;2022-11-09T13:03:37;14.90;94.30
16980;DHT22;42288;52.182;21.156;2022-11-09T13:06:18;15.00;94.70
16980;DHT22;42288;52.182;21.156;2022-11-09T13:11:39;14.90;94.80
16980;DHT22;42288;52.182;21.156;2022-11-09T13:16:47;15.00;94.70
16980;DHT22;42288;52.182;21.156;2022-11-09T13:21:59;14.60;95.10
16980;DHT22;42288;52.182;21.156;2022-11-09T13:27:02;14.20;95.90
16980;DHT22;42288;52.182;21.156;2022-11-09T13:34:43;14.30;96.30
16980;DHT22;42288;52.182;21.156;2022-11-09T13:43:00;14.20;96.50
16980;DHT22;42288;52.182;21.156;2022-11-09T13:58:58;13.50;97.60
16980;DHT22;42288;52.182;21.156;2022-11-09T14:01:44;13.60;97.80
16980;DHT22;42288;52.182;21.156;2022-11-09T14:04:27;13.60;97.60
16980;DHT22;42288;52.182;21.156;2022-11-09T14:07:02;13.70;97.80
16980;DHT22;42288;52.182;21.156;2022-11-09T14:09:54;13.80;97.80
16980;DHT22;42288;52.182;21.156;2022-11-09T14:18:34;13.50;97.90
16980;DHT22;42288;52.182;21.156;2022-11-09T14:21:06;13.50;98.20
16980;DHT22;42288;52.182;21.156;2022-11-09T14:23:36;13.50;98.20
16980;DHT22;42288;52.182;21.156;2022-11-09T14:26:16;13.60;98.20
16980;DHT22;42288;52.182;21.156;2022-11-09T14:28:42;13.60;98.30
16980;DHT22;42288;52.182;21.156;2022-11-09T14:31:24;13.50;98.10
16980;DHT22;42288;52.182;21.156;2022-11-09T14:34:00;13.50;98.30
16980;DHT22;42288;52.182;21.156;2022-11-09T14:36:27;13.50;98.40
16980;DHT22;42288;52.182;21.156;2022-11-09T14:38:54;13.60;98.40
16980;DHT22;42288;52.182;21.156;2022-11-09T14:41:24;13.60;98.20
16980;DHT22;42288;52.182;21.156;2022-11-09T14:43:51;13.70;98.20
16980;DHT22;42288;52.182;21.156;2022-11-09T14:46:20;13.60;98.10
16980;DHT22;42288;52.182;21.156;2022-11-09T14:48:54;13.50;98.10
16980;DHT22;42288;52.182;21.156;2022-11-09T14:51:21;13.50;98.20
16980;DHT22;42288;52.182;21.156;2022-11-09T14:53:49;13.50;98.30
16980;DHT22;42288;52.182;21.156;2022-11-09T14:56:17;13.40;98.30
16980;DHT22;42288;52.182;21.156;2022-11-09T14:58:44;13.30;98.50
16980;DHT22;42288;52.182;21.156;2022-11-09T15:03:43;13.00;99.10
16980;DHT22;42288;52.182;21.156;2022-11-09T15:06:14;12.90;99.40
16980;DHT22;42288;52.182;21.156;2022-11-09T15:08:54;12.90;99.40
16980;DHT22;42288;52.182;21.156;2022-11-09T15:11:29;12.70;99.60
16980;DHT22;42288;52.182;21.156;2022-11-09T15:13:55;12.50;99.90
16980;DHT22;42288;52.182;21.156;2022-11-09T15:16:25;12.50;99.90
16980;DHT22;42288;52.182;21.156;2022-11-09T15:18:51;12.60;99.90
16980;DHT22;42288;52.182;21.156;2022-11-09T15:23:49;12.40;99.90
16980;DHT22;42288;52.182;21.156;2022-11-09T15:26:48;12.30;99.90
16980;DHT22;42288;52.182;21.156;2022-11-09T15:32:02;12.10;99.90
16980;DHT22;42288;52.182;21.156;2022-11-09T15:34:36;12.20;99.90
16980;DHT22;42288;52.182;21.156;2022-11-09T15:37:02;12.20;99.90
16980;DHT22;42288;52.182;21.156;2022-11-09T15:39:28;12.00;99.90
16980;DHT22;42288;52.182;21.156;2022-11-09T15:41:54;12.00;99.90
16980;DHT22;42288;52.182;21.156;2022-11-09T15:44:19;11.90;99.90
16980;DHT22;42288;52.182;21.156;2022-11-09T15:46:52;11.90;99.90
16980;DHT22;42288;52.182;21.156;2022-11-09T15:49:25;11.80;99.90
16980;DHT22;42288;52.182;21.156;2022-11-09T15:51:52;11.80;99.90
16980;DHT22;42288;52.182;21.156;2022-11-09T15:54:19;11.70;99.90
16980;DHT22;42288;52.182;21.156;2022-11-09T15:56:45;11.70;99.90
16980;DHT22;42288;52.182;21.156;2022-11-09T15:59:20;11.80;99.90
16980;DHT22;42288;52.182;21.156;2022-11-09T16:01:46;11.80;99.90
16980;DHT22;42288;52.182;21.156;2022-11-09T16:04:12;11.90;99.90
16980;DHT22;42288;52.182;21.156;2022-11-09T16:06:37;11.90;99.90
16980;DHT22;42288;52.182;21.156;2022-11-09T16:09:06;12.00;99.90
16980;DHT22;42288;52.182;21.156;2022-11-09T16:11:32;12.00;99.90
16980;DHT22;42288;52.182;21.156;2022-11-09T16:14:00;11.90;99.90
16980;DHT22;42288;52.182;21.156;2022-11-09T16:16:26;11.90;99.90
16980;DHT22;42288;52.182;21.156;2022-11-09T16:18:53;11.80;99.90
16980;DHT22;42288;52.182;21.156;2022-11-09T16:21:19;11.80;99.90
16980;DHT22;42288;52.182;21.156;2022-11-09T16:23:44;11.80;99.90
16980;DHT22;42288;52.182;21.156;2022-11-09T16:26:15;11.90;99.90
16980;DHT22;42288;52.182;21.156;2022-11-09T16:28:41;11.80;99.90
16980;DHT22;42288;52.182;21.156;2022-11-09T16:31:08;11.70;99.90
16980;DHT22;42288;52.182;21.156;2022-11-09T16:33:34;11.60;99.90
16980;DHT22;42288;52.182;21.156;2022-11-09T16:36:03;11.70;99.90
16980;DHT22;42288;52.182;21.156;2022-11-09T16:38:30;11.70;99.90
16980;DHT22;42288;52.182;21.156;2022-11-09T16:41:00;11.60;99.90
16980;DHT22;42288;52.182;21.156;2022-11-09T16:43:29;11.60;99.90
16980;DHT22;42288;52.182;21.156;2022-11-09T16:45:55;11.40;99.90
16980;DHT22;42288;52.182;21.156;2022-11-09T16:48:21;11.40;99.90
16980;DHT22;42288;52.182;21.156;2022-11-09T16:50:46;11.40;99.90
16980;DHT22;42288;52.182;21.156;2022-11-09T16:53:13;11.40;99.90
16980;DHT22;42288;52.182;21.156;2022-11-09T16:55:38;11.20;99.90
16980;DHT22;42288;52.182;21.156;2022-11-09T16:58:04;11.20;99.90
16980;DHT22;42288;52.182;21.156;2022-11-09T17:00:29;11.20;99.90
16980;DHT22;42288;52.182;21.156;2022-11-09T17:02:55;11.30;99.90
16980;DHT22;42288;52.182;21.156;2022-11-09T17:05:20;11.20;99.90
16980;DHT22;42288;52.182;21.156;2022-11-09T17:07:47;11.20;99.90
16980;DHT22;42288;52.182;21.156;2022-11-09T17:10:13;11.10;99.90
16980;DHT22;42288;52.182;21.156;2022-11-09T17:12:39;11.10;99.90